Terminal Aerodrome Forecast
Issued by NWS

Home | Current Version | Previous Version | Graphics & Text | Print | Product List | Glossary On
Versions: 1 2 3 4 5 6 7 8 9 10 11 12 13 14 15 16 17
946
FTUS43 KICT 250645 AAA
TAFHUT
TAF AMD
KHUT 250645Z 2507/2606 15009KT P6SM VCSH SCT040 BKN080
      WS015/18045KT
     FM251100 15009KT P6SM BKN250
     FM251500 20010KT P6SM BKN250
     FM252100 33013KT P6SM SCT025 BKN120
     FM260000 36015G22KT P6SM VCSH OVC020=

USA.gov is the U.S. government's official web portal to all federal, state and local government web resources and services.